sensor_id;sensor_type;location;lat;lon;timestamp;pressure;altitude;pressure_sealevel;temperature;humidity
20003;BME280;10162;41.600;23.806;2023-05-20T00:02:08;95405.25;;;11.35;100.00
20003;BME280;10162;41.600;23.806;2023-05-20T00:04:34;95408.25;;;10.98;100.00
20003;BME280;10162;41.600;23.806;2023-05-20T00:07:15;95429.13;;;10.91;100.00
20003;BME280;10162;41.600;23.806;2023-05-20T00:10:04;95414.28;;;10.70;100.00
20003;BME280;10162;41.600;23.806;2023-05-20T00:12:29;95403.06;;;10.55;100.00
20003;BME280;10162;41.600;23.806;2023-05-20T00:18:29;95404.38;;;10.94;100.00
20003;BME280;10162;41.600;23.806;2023-05-20T00:20:55;95408.28;;;11.04;100.00
20003;BME280;10162;41.600;23.806;2023-05-20T00:23:20;95412.91;;;11.02;100.00
20003;BME280;10162;41.600;23.806;2023-05-20T00:25:52;95397.56;;;10.50;100.00
20003;BME280;10162;41.600;23.806;2023-05-20T00:32:10;95392.03;;;10.39;100.00
20003;BME280;10162;41.600;23.806;2023-05-20T00:34:36;95404.91;;;10.61;100.00
20003;BME280;10162;41.600;23.806;2023-05-20T00:37:03;95416.06;;;10.70;100.00
20003;BME280;10162;41.600;23.806;2023-05-20T00:39:55;95424.66;;;10.64;100.00
20003;BME280;10162;41.600;23.806;2023-05-20T00:42:26;95408.16;;;10.63;100.00
20003;BME280;10162;41.600;23.806;2023-05-20T00:44:53;95422.56;;;10.53;100.00
20003;BME280;10162;41.600;23.806;2023-05-20T00:47:21;95418.34;;;10.37;100.00
20003;BME280;10162;41.600;23.806;2023-05-20T00:56:50;95405.91;;;10.03;100.00
20003;BME280;10162;41.600;23.806;2023-05-20T01:02:20;95397.34;;;10.24;100.00
20003;BME280;10162;41.600;23.806;2023-05-20T01:04:49;95412.94;;;10.03;100.00
20003;BME280;10162;41.600;23.806;2023-05-20T01:07:18;95414.47;;;10.12;100.00
20003;BME280;10162;41.600;23.806;2023-05-20T01:13:57;95411.25;;;10.31;100.00
20003;BME280;10162;41.600;23.806;2023-05-20T01:16:25;95409.78;;;10.07;100.00
20003;BME280;10162;41.600;23.806;2023-05-20T01:19:21;95404.41;;;9.94;100.00
20003;BME280;10162;41.600;23.806;2023-05-20T01:21:58;95395.59;;;9.95;100.00
20003;BME280;10162;41.600;23.806;2023-05-20T01:24:26;95395.91;;;10.07;100.00
20003;BME280;10162;41.600;23.806;2023-05-20T01:26:52;95381.63;;;9.88;100.00
20003;BME280;10162;41.600;23.806;2023-05-20T01:33:28;95378.00;;;9.68;100.00
20003;BME280;10162;41.600;23.806;2023-05-20T01:36:29;95376.66;;;9.57;100.00
20003;BME280;10162;41.600;23.806;2023-05-20T01:42:52;95371.78;;;10.05;100.00
20003;BME280;10162;41.600;23.806;2023-05-20T01:45:22;95381.59;;;9.52;100.00
20003;BME280;10162;41.600;23.806;2023-05-20T01:47:48;95362.59;;;9.58;100.00
20003;BME280;10162;41.600;23.806;2023-05-20T01:53:45;95359.72;;;9.68;100.00
20003;BME280;10162;41.600;23.806;2023-05-20T01:56:12;95369.34;;;9.67;100.00
20003;BME280;10162;41.600;23.806;2023-05-20T01:58:37;95364.09;;;9.82;100.00
20003;BME280;10162;41.600;23.806;2023-05-20T02:01:10;95381.50;;;9.60;100.00
20003;BME280;10162;41.600;23.806;2023-05-20T02:03:42;95384.28;;;9.73;100.00
20003;BME280;10162;41.600;23.806;2023-05-20T02:06:10;95394.19;;;9.63;100.00
20003;BME280;10162;41.600;23.806;2023-05-20T02:08:37;95383.47;;;9.73;100.00
20003;BME280;10162;41.600;23.806;2023-05-20T02:11:44;95389.16;;;9.47;100.00
20003;BME280;10162;41.600;23.806;2023-05-20T02:14:34;95378.50;;;9.27;100.00
20003;BME280;10162;41.600;23.806;2023-05-20T02:17:03;95370.13;;;9.32;100.00
20003;BME280;10162;41.600;23.806;2023-05-20T02:24:09;95354.09;;;9.49;100.00
20003;BME280;10162;41.600;23.806;2023-05-20T02:26:46;95371.19;;;9.37;100.00
20003;BME280;10162;41.600;23.806;2023-05-20T02:30:36;95379.72;;;9.46;100.00
20003;BME280;10162;41.600;23.806;2023-05-20T02:32:46;95368.75;;;9.36;100.00
20003;BME280;10162;41.600;23.806;2023-05-20T02:35:16;95376.69;;;9.42;100.00
20003;BME280;10162;41.600;23.806;2023-05-20T02:37:42;95397.81;;;9.18;100.00
20003;BME280;10162;41.600;23.806;2023-05-20T02:43:11;95382.88;;;9.12;100.00
20003;BME280;10162;41.600;23.806;2023-05-20T02:45:37;95370.34;;;8.78;100.00
20003;BME280;10162;41.600;23.806;2023-05-20T02:48:02;95382.94;;;8.75;100.00
20003;BME280;10162;41.600;23.806;2023-05-20T02:53:51;95411.72;;;8.96;100.00
20003;BME280;10162;41.600;23.806;2023-05-20T02:56:24;95391.31;;;8.85;100.00
20003;BME280;10162;41.600;23.806;2023-05-20T02:58:49;95404.16;;;8.86;100.00
20003;BME280;10162;41.600;23.806;2023-05-20T03:01:22;95387.47;;;9.25;100.00
20003;BME280;10162;41.600;23.806;2023-05-20T03:04:03;95392.06;;;9.08;100.00
20003;BME280;10162;41.600;23.806;2023-05-20T03:06:29;95377.50;;;8.99;100.00
20003;BME280;10162;41.600;23.806;2023-05-20T03:09:46;95407.78;;;9.29;100.00
20003;BME280;10162;41.600;23.806;2023-05-20T03:15:45;95418.53;;;9.49;100.00
20003;BME280;10162;41.600;23.806;2023-05-20T03:18:11;95387.31;;;9.26;100.00
20003;BME280;10162;41.600;23.806;2023-05-20T03:20:59;95415.38;;;9.39;100.00
20003;BME280;10162;41.600;23.806;2023-05-20T03:23:41;95410.69;;;9.20;100.00
20003;BME280;10162;41.600;23.806;2023-05-20T03:26:07;95390.88;;;9.40;100.00
20003;BME280;10162;41.600;23.806;2023-05-20T03:28:36;95372.53;;;9.04;100.00
20003;BME280;10162;41.600;23.806;2023-05-20T03:31:38;95408.88;;;9.20;100.00
20003;BME280;10162;41.600;23.806;2023-05-20T03:34:04;95426.44;;;9.41;100.00
20003;BME280;10162;41.600;23.806;2023-05-20T03:36:30;95426.34;;;9.49;100.00
20003;BME280;10162;41.600;23.806;2023-05-20T03:39:20;95436.25;;;9.53;100.00
20003;BME280;10162;41.600;23.806;2023-05-20T03:41:46;95434.16;;;9.34;100.00
20003;BME280;10162;41.600;23.806;2023-05-20T03:44:12;95418.69;;;9.33;100.00
20003;BME280;10162;41.600;23.806;2023-05-20T03:46:39;95416.28;;;9.17;100.00
20003;BME280;10162;41.600;23.806;2023-05-20T03:52:02;95422.47;;;9.45;100.00
20003;BME280;10162;41.600;23.806;2023-05-20T03:54:28;95441.72;;;9.59;100.00
20003;BME280;10162;41.600;23.806;2023-05-20T03:56:57;95419.22;;;9.58;100.00
20003;BME280;10162;41.600;23.806;2023-05-20T03:59:45;95405.81;;;9.61;100.00
20003;BME280;10162;41.600;23.806;2023-05-20T04:02:11;95412.06;;;9.95;100.00
20003;BME280;10162;41.600;23.806;2023-05-20T04:04:37;95419.88;;;10.25;100.00
20003;BME280;10162;41.600;23.806;2023-05-20T04:07:03;95431.56;;;10.29;100.00
20003;BME280;10162;41.600;23.806;2023-05-20T04:10:05;95440.72;;;10.61;100.00
20003;BME280;10162;41.600;23.806;2023-05-20T04:12:42;95440.34;;;10.64;100.00
20003;BME280;10162;41.600;23.806;2023-05-20T04:15:08;95433.97;;;10.73;100.00
20003;BME280;10162;41.600;23.806;2023-05-20T04:18:00;95420.72;;;10.74;100.00
20003;BME280;10162;41.600;23.806;2023-05-20T04:23:53;95437.44;;;11.01;100.00
20003;BME280;10162;41.600;23.806;2023-05-20T04:26:19;95433.81;;;11.30;100.00
20003;BME280;10162;41.600;23.806;2023-05-20T04:28:45;95427.00;;;11.36;100.00
20003;BME280;10162;41.600;23.806;2023-05-20T04:31:14;95439.19;;;11.50;100.00
20003;BME280;10162;41.600;23.806;2023-05-20T04:33:40;95418.81;;;11.45;100.00
20003;BME280;10162;41.600;23.806;2023-05-20T04:36:11;95447.41;;;11.75;100.00
20003;BME280;10162;41.600;23.806;2023-05-20T04:38:43;95433.03;;;11.64;100.00
20003;BME280;10162;41.600;23.806;2023-05-20T04:41:11;95443.63;;;11.49;100.00
20003;BME280;10162;41.600;23.806;2023-05-20T04:43:37;95458.72;;;11.47;100.00
20003;BME280;10162;41.600;23.806;2023-05-20T04:46:04;95458.94;;;11.52;100.00
20003;BME280;10162;41.600;23.806;2023-05-20T04:48:34;95453.09;;;11.85;100.00
20003;BME280;10162;41.600;23.806;2023-05-20T04:51:01;95429.81;;;11.69;100.00
20003;BME280;10162;41.600;23.806;2023-05-20T04:53:30;95452.75;;;11.94;100.00
20003;BME280;10162;41.600;23.806;2023-05-20T04:55:56;95444.81;;;12.29;100.00
20003;BME280;10162;41.600;23.806;2023-05-20T04:58:22;95447.06;;;12.38;100.00
20003;BME280;10162;41.600;23.806;2023-05-20T05:00:57;95431.94;;;12.40;100.00
20003;BME280;10162;41.600;23.806;2023-05-20T05:03:22;95446.72;;;12.61;100.00
20003;BME280;10162;41.600;23.806;2023-05-20T05:05:48;95449.19;;;13.02;100.00
20003;BME280;10162;41.600;23.806;2023-05-20T05:08:14;95432.22;;;12.92;100.00
20003;BME280;10162;41.600;23.806;2023-05-20T05:14:54;95423.28;;;13.58;100.00
20003;BME280;10162;41.600;23.806;2023-05-20T05:17:24;95442.06;;;13.69;100.00
20003;BME280;10162;41.600;23.806;2023-05-20T05:23:43;95418.19;;;13.77;100.00
20003;BME280;10162;41.600;23.806;2023-05-20T05:26:10;95427.88;;;13.83;100.00
20003;BME280;10162;41.600;23.806;2023-05-20T05:28:36;95418.53;;;14.00;100.00
20003;BME280;10162;41.600;23.806;2023-05-20T05:34:29;95413.94;;;14.27;100.00
20003;BME280;10162;41.600;23.806;2023-05-20T05:36:54;95431.69;;;14.44;100.00
20003;BME280;10162;41.600;23.806;2023-05-20T05:39:48;95430.72;;;14.70;100.00
20003;BME280;10162;41.600;23.806;2023-05-20T05:42:15;95416.84;;;14.57;100.00
20003;BME280;10162;41.600;23.806;2023-05-20T05:44:41;95414.03;;;14.83;100.00
20003;BME280;10162;41.600;23.806;2023-05-20T05:47:09;95416.97;;;14.68;100.00
20003;BME280;10162;41.600;23.806;2023-05-20T05:52:28;95440.69;;;15.18;100.00
20003;BME280;10162;41.600;23.806;2023-05-20T05:54:54;95423.91;;;15.37;100.00
20003;BME280;10162;41.600;23.806;2023-05-20T05:57:20;95406.56;;;15.05;100.00
20003;BME280;10162;41.600;23.806;2023-05-20T06:00:00;95416.22;;;15.11;100.00
20003;BME280;10162;41.600;23.806;2023-05-20T06:02:30;95416.50;;;15.27;100.00
20003;BME280;10162;41.600;23.806;2023-05-20T06:05:03;95416.88;;;15.31;100.00
20003;BME280;10162;41.600;23.806;2023-05-20T06:07:29;95418.44;;;15.14;100.00
20003;BME280;10162;41.600;23.806;2023-05-20T06:10:07;95418.94;;;15.54;100.00
20003;BME280;10162;41.600;23.806;2023-05-20T06:12:33;95415.19;;;15.61;100.00
20003;BME280;10162;41.600;23.806;2023-05-20T06:14:59;95403.63;;;15.62;100.00
20003;BME280;10162;41.600;23.806;2023-05-20T06:17:27;95408.16;;;15.55;100.00
20003;BME280;10162;41.600;23.806;2023-05-20T06:19:54;95403.16;;;15.84;100.00
20003;BME280;10162;41.600;23.806;2023-05-20T06:22:21;95377.78;;;15.71;100.00
20003;BME280;10162;41.600;23.806;2023-05-20T06:24:47;95410.19;;;16.08;100.00
20003;BME280;10162;41.600;23.806;2023-05-20T06:27:13;95410.19;;;15.90;100.00
20003;BME280;10162;41.600;23.806;2023-05-20T06:30:16;95412.19;;;16.42;100.00
20003;BME280;10162;41.600;23.806;2023-05-20T06:32:44;95403.63;;;16.59;100.00
20003;BME280;10162;41.600;23.806;2023-05-20T06:35:10;95402.25;;;16.74;100.00
20003;BME280;10162;41.600;23.806;2023-05-20T06:37:36;95400.03;;;16.71;99.82
20003;BME280;10162;41.600;23.806;2023-05-20T06:40:30;95397.06;;;16.68;100.00
20003;BME280;10162;41.600;23.806;2023-05-20T06:42:57;95381.50;;;17.01;97.42
20003;BME280;10162;41.600;23.806;2023-05-20T06:45:43;95370.56;;;16.98;97.73
20003;BME280;10162;41.600;23.806;2023-05-20T06:48:24;95375.81;;;16.63;93.73
20003;BME280;10162;41.600;23.806;2023-05-20T06:51:20;95372.78;;;17.35;91.67
20003;BME280;10162;41.600;23.806;2023-05-20T06:53:47;95349.00;;;17.70;85.49
20003;BME280;10162;41.600;23.806;2023-05-20T06:56:14;95362.19;;;17.59;89.99
20003;BME280;10162;41.600;23.806;2023-05-20T06:58:41;95355.53;;;17.56;90.48
20003;BME280;10162;41.600;23.806;2023-05-20T07:04:19;95353.47;;;18.10;90.43
20003;BME280;10162;41.600;23.806;2023-05-20T07:06:46;95347.38;;;18.09;88.00
20003;BME280;10162;41.600;23.806;2023-05-20T07:12:49;95348.69;;;18.24;86.27
20003;BME280;10162;41.600;23.806;2023-05-20T07:15:15;95348.25;;;18.43;86.93
20003;BME280;10162;41.600;23.806;2023-05-20T07:17:42;95347.31;;;18.49;85.36
20003;BME280;10162;41.600;23.806;2023-05-20T07:20:34;95346.44;;;18.15;90.38
20003;BME280;10162;41.600;23.806;2023-05-20T07:23:04;95314.59;;;17.70;89.70
20003;BME280;10162;41.600;23.806;2023-05-20T07:25:36;95320.28;;;17.27;94.58
20003;BME280;10162;41.600;23.806;2023-05-20T07:28:02;95331.28;;;18.11;90.23
20003;BME280;10162;41.600;23.806;2023-05-20T07:30:32;95318.72;;;17.78;92.37
20003;BME280;10162;41.600;23.806;2023-05-20T07:33:11;95332.25;;;17.93;90.81
20003;BME280;10162;41.600;23.806;2023-05-20T07:35:38;95331.00;;;18.12;87.88
20003;BME280;10162;41.600;23.806;2023-05-20T07:38:03;95324.84;;;18.52;86.53
20003;BME280;10162;41.600;23.806;2023-05-20T07:43:32;95317.50;;;18.87;84.35
20003;BME280;10162;41.600;23.806;2023-05-20T07:45:58;95321.63;;;19.33;81.23
20003;BME280;10162;41.600;23.806;2023-05-20T07:48:24;95337.31;;;19.35;81.47
20003;BME280;10162;41.600;23.806;2023-05-20T07:50:58;95322.91;;;19.31;81.00
20003;BME280;10162;41.600;23.806;2023-05-20T07:53:25;95300.16;;;18.80;81.96
20003;BME280;10162;41.600;23.806;2023-05-20T07:55:51;95309.91;;;18.46;84.72
20003;BME280;10162;41.600;23.806;2023-05-20T07:58:17;95290.53;;;18.57;85.88
20003;BME280;10162;41.600;23.806;2023-05-20T08:03:49;95297.69;;;19.07;84.84
20003;BME280;10162;41.600;23.806;2023-05-20T08:06:19;95291.97;;;18.98;83.94
20003;BME280;10162;41.600;23.806;2023-05-20T08:08:45;95306.59;;;19.01;85.58
20003;BME280;10162;41.600;23.806;2023-05-20T08:11:17;95295.13;;;19.33;83.88
20003;BME280;10162;41.600;23.806;2023-05-20T08:13:47;95293.97;;;18.91;84.51
20003;BME280;10162;41.600;23.806;2023-05-20T08:16:14;95285.56;;;18.94;83.73
20003;BME280;10162;41.600;23.806;2023-05-20T08:18:42;95295.91;;;19.72;77.24
20003;BME280;10162;41.600;23.806;2023-05-20T08:25:03;95299.75;;;19.43;79.02
20003;BME280;10162;41.600;23.806;2023-05-20T08:27:29;95281.88;;;19.33;80.93
20003;BME280;10162;41.600;23.806;2023-05-20T08:33:14;95265.03;;;20.10;78.05
20003;BME280;10162;41.600;23.806;2023-05-20T08:35:40;95276.81;;;20.78;74.10
20003;BME280;10162;41.600;23.806;2023-05-20T08:38:07;95254.53;;;20.25;73.72
20003;BME280;10162;41.600;23.806;2023-05-20T08:43:39;95271.03;;;20.27;75.38
20003;BME280;10162;41.600;23.806;2023-05-20T08:46:05;95286.03;;;20.16;77.36
20003;BME280;10162;41.600;23.806;2023-05-20T08:48:34;95269.72;;;20.03;76.73
20003;BME280;10162;41.600;23.806;2023-05-20T08:51:36;95292.44;;;19.94;76.92
20003;BME280;10162;41.600;23.806;2023-05-20T08:54:03;95275.69;;;20.15;77.39
20003;BME280;10162;41.600;23.806;2023-05-20T08:56:29;95266.25;;;20.29;77.51
20003;BME280;10162;41.600;23.806;2023-05-20T08:59:25;95276.50;;;20.74;74.84
20003;BME280;10162;41.600;23.806;2023-05-20T09:01:51;95274.19;;;21.20;68.60
20003;BME280;10162;41.600;23.806;2023-05-20T09:04:17;95261.34;;;21.12;65.25
20003;BME280;10162;41.600;23.806;2023-05-20T09:06:44;95252.16;;;21.24;63.08
20003;BME280;10162;41.600;23.806;2023-05-20T09:09:32;95259.03;;;21.82;62.39
20003;BME280;10162;41.600;23.806;2023-05-20T09:12:03;95253.88;;;21.09;65.98
20003;BME280;10162;41.600;23.806;2023-05-20T09:14:29;95243.16;;;20.93;66.19
20003;BME280;10162;41.600;23.806;2023-05-20T09:16:56;95245.97;;;20.77;65.95
20003;BME280;10162;41.600;23.806;2023-05-20T09:22:50;95237.03;;;20.93;63.06
20003;BME280;10162;41.600;23.806;2023-05-20T09:25:21;95263.03;;;20.86;59.35
20003;BME280;10162;41.600;23.806;2023-05-20T09:27:48;95242.69;;;21.01;56.89
20003;BME280;10162;41.600;23.806;2023-05-20T09:30:48;95255.31;;;21.21;58.21
20003;BME280;10162;41.600;23.806;2023-05-20T09:33:15;95259.56;;;21.17;59.86
20003;BME280;10162;41.600;23.806;2023-05-20T09:35:42;95244.00;;;20.99;59.99
20003;BME280;10162;41.600;23.806;2023-05-20T09:38:09;95242.63;;;21.33;56.09
20003;BME280;10162;41.600;23.806;2023-05-20T09:43:54;95226.63;;;21.96;54.41
20003;BME280;10162;41.600;23.806;2023-05-20T09:46:20;95219.34;;;21.66;51.23
20003;BME280;10162;41.600;23.806;2023-05-20T09:48:47;95209.41;;;21.41;49.18
20003;BME280;10162;41.600;23.806;2023-05-20T09:51:13;95201.75;;;21.60;49.14
20003;BME280;10162;41.600;23.806;2023-05-20T09:53:41;95218.53;;;21.70;47.59
20003;BME280;10162;41.600;23.806;2023-05-20T09:56:07;95201.94;;;21.38;47.25
20003;BME280;10162;41.600;23.806;2023-05-20T09:58:35;95204.41;;;21.55;44.57
20003;BME280;10162;41.600;23.806;2023-05-20T10:01:05;95211.94;;;21.93;43.88
20003;BME280;10162;41.600;23.806;2023-05-20T10:03:32;95206.97;;;22.12;44.22
20003;BME280;10162;41.600;23.806;2023-05-20T10:14:31;95209.66;;;22.88;42.59
20003;BME280;10162;41.600;23.806;2023-05-20T10:17:24;95198.47;;;22.10;43.13
20003;BME280;10162;41.600;23.806;2023-05-20T10:20:05;95170.22;;;22.09;45.85
20003;BME280;10162;41.600;23.806;2023-05-20T10:22:31;95175.47;;;21.89;46.83
20003;BME280;10162;41.600;23.806;2023-05-20T10:25:04;95165.41;;;22.46;47.68
20003;BME280;10162;41.600;23.806;2023-05-20T10:27:44;95164.47;;;23.81;42.84
20003;BME280;10162;41.600;23.806;2023-05-20T10:30:48;95166.22;;;24.40;42.81
20003;BME280;10162;41.600;23.806;2023-05-20T10:33:16;95160.97;;;23.31;42.69
20003;BME280;10162;41.600;23.806;2023-05-20T10:35:49;95154.19;;;22.85;44.55
20003;BME280;10162;41.600;23.806;2023-05-20T10:38:17;95145.44;;;22.39;43.91
20003;BME280;10162;41.600;23.806;2023-05-20T10:40:46;95160.88;;;22.21;44.40
20003;BME280;10162;41.600;23.806;2023-05-20T10:43:14;95154.22;;;21.99;45.62
20003;BME280;10162;41.600;23.806;2023-05-20T10:45:48;95145.72;;;22.07;44.18
20003;BME280;10162;41.600;23.806;2023-05-20T10:51:02;95165.94;;;22.53;43.40
20003;BME280;10162;41.600;23.806;2023-05-20T10:53:39;95133.94;;;22.68;43.95
20003;BME280;10162;41.600;23.806;2023-05-20T10:56:16;95122.25;;;22.59;43.44
20003;BME280;10162;41.600;23.806;2023-05-20T10:58:43;95119.63;;;22.19;42.46
20003;BME280;10162;41.600;23.806;2023-05-20T11:01:13;95143.84;;;22.12;41.50
20003;BME280;10162;41.600;23.806;2023-05-20T11:03:40;95118.88;;;23.18;40.97
20003;BME280;10162;41.600;23.806;2023-05-20T11:06:11;95131.53;;;23.57;41.77
20003;BME280;10162;41.600;23.806;2023-05-20T11:08:38;95126.28;;;23.31;39.27
20003;BME280;10162;41.600;23.806;2023-05-20T11:11:05;95107.22;;;22.99;40.35
20003;BME280;10162;41.600;23.806;2023-05-20T11:13:42;95116.59;;;22.86;41.19
20003;BME280;10162;41.600;23.806;2023-05-20T11:16:09;95124.91;;;22.75;41.77
20003;BME280;10162;41.600;23.806;2023-05-20T11:18:35;95133.06;;;23.03;41.47
20003;BME280;10162;41.600;23.806;2023-05-20T11:21:04;95116.81;;;23.05;41.20
20003;BME280;10162;41.600;23.806;2023-05-20T11:23:30;95117.88;;;23.68;41.48
20003;BME280;10162;41.600;23.806;2023-05-20T11:25:57;95121.91;;;22.91;41.36
20003;BME280;10162;41.600;23.806;2023-05-20T11:28:23;95106.28;;;22.39;43.10
20003;BME280;10162;41.600;23.806;2023-05-20T11:30:52;95111.38;;;22.25;44.44
20003;BME280;10162;41.600;23.806;2023-05-20T11:33:18;95116.13;;;22.39;43.41
20003;BME280;10162;41.600;23.806;2023-05-20T11:35:47;95113.91;;;22.91;42.90
20003;BME280;10162;41.600;23.806;2023-05-20T11:38:14;95120.31;;;23.60;41.86
20003;BME280;10162;41.600;23.806;2023-05-20T11:40:45;95109.06;;;23.03;42.48
20003;BME280;10162;41.600;23.806;2023-05-20T11:43:13;95097.63;;;22.98;43.85
20003;BME280;10162;41.600;23.806;2023-05-20T11:45:43;95108.06;;;22.89;44.41
20003;BME280;10162;41.600;23.806;2023-05-20T11:48:10;95117.16;;;22.63;42.96
20003;BME280;10162;41.600;23.806;2023-05-20T11:51:09;95133.16;;;22.78;44.46
20003;BME280;10162;41.600;23.806;2023-05-20T11:53:39;95122.22;;;22.70;43.80
20003;BME280;10162;41.600;23.806;2023-05-20T11:56:06;95116.63;;;22.81;43.55
20003;BME280;10162;41.600;23.806;2023-05-20T11:58:32;95104.38;;;22.65;42.92
20003;BME280;10162;41.600;23.806;2023-05-20T12:04:11;95102.59;;;24.70;37.84
20003;BME280;10162;41.600;23.806;2023-05-20T12:06:40;95087.97;;;24.00;38.46
20003;BME280;10162;41.600;23.806;2023-05-20T12:09:26;95105.75;;;23.81;40.16
20003;BME280;10162;41.600;23.806;2023-05-20T12:11:52;95087.69;;;23.68;39.69
20003;BME280;10162;41.600;23.806;2023-05-20T12:14:20;95089.47;;;24.98;38.93
20003;BME280;10162;41.600;23.806;2023-05-20T12:16:45;95091.41;;;25.35;38.74
20003;BME280;10162;41.600;23.806;2023-05-20T12:19:11;95091.31;;;24.21;40.09
20003;BME280;10162;41.600;23.806;2023-05-20T12:21:37;95072.13;;;23.80;40.95
20003;BME280;10162;41.600;23.806;2023-05-20T12:24:03;95074.09;;;23.64;39.81
20003;BME280;10162;41.600;23.806;2023-05-20T12:26:31;95068.19;;;23.18;40.69
20003;BME280;10162;41.600;23.806;2023-05-20T12:29:12;95065.25;;;22.55;41.13
20003;BME280;10162;41.600;23.806;2023-05-20T12:31:39;95077.19;;;22.73;41.94
20003;BME280;10162;41.600;23.806;2023-05-20T12:34:05;95071.25;;;22.96;44.89
20003;BME280;10162;41.600;23.806;2023-05-20T12:36:30;95067.88;;;22.50;43.36
20003;BME280;10162;41.600;23.806;2023-05-20T12:38:56;95056.22;;;23.16;42.93
20003;BME280;10162;41.600;23.806;2023-05-20T12:41:22;95061.25;;;23.22;43.70
20003;BME280;10162;41.600;23.806;2023-05-20T12:43:48;95064.06;;;22.92;42.24
20003;BME280;10162;41.600;23.806;2023-05-20T12:46:14;95061.63;;;23.00;42.84
20003;BME280;10162;41.600;23.806;2023-05-20T12:48:40;95054.34;;;23.16;41.57
20003;BME280;10162;41.600;23.806;2023-05-20T12:51:18;95058.72;;;23.41;41.46
20003;BME280;10162;41.600;23.806;2023-05-20T12:53:45;95042.81;;;23.26;40.68
20003;BME280;10162;41.600;23.806;2023-05-20T12:56:11;95059.78;;;23.45;40.14
20003;BME280;10162;41.600;23.806;2023-05-20T12:58:37;95040.66;;;22.84;38.93
20003;BME280;10162;41.600;23.806;2023-05-20T13:01:26;95049.13;;;23.01;38.22
20003;BME280;10162;41.600;23.806;2023-05-20T13:03:51;95038.44;;;22.96;39.31
20003;BME280;10162;41.600;23.806;2023-05-20T13:06:18;95027.84;;;22.81;43.02
20003;BME280;10162;41.600;23.806;2023-05-20T13:08:44;95046.69;;;23.04;42.84
20003;BME280;10162;41.600;23.806;2023-05-20T13:11:10;95043.78;;;22.96;42.71
20003;BME280;10162;41.600;23.806;2023-05-20T13:13:37;95034.13;;;23.10;41.87
20003;BME280;10162;41.600;23.806;2023-05-20T13:16:03;95042.25;;;22.80;43.28
20003;BME280;10162;41.600;23.806;2023-05-20T13:18:29;95032.81;;;22.13;42.70
20003;BME280;10162;41.600;23.806;2023-05-20T13:20:55;95055.19;;;21.92;43.63
20003;BME280;10162;41.600;23.806;2023-05-20T13:23:20;95052.78;;;21.75;45.20
20003;BME280;10162;41.600;23.806;2023-05-20T13:25:46;95033.59;;;21.42;42.52
20003;BME280;10162;41.600;23.806;2023-05-20T13:28:12;95025.25;;;22.50;42.97
20003;BME280;10162;41.600;23.806;2023-05-20T13:31:04;95039.59;;;23.34;39.96
20003;BME280;10162;41.600;23.806;2023-05-20T13:33:30;95037.63;;;23.50;40.75
20003;BME280;10162;41.600;23.806;2023-05-20T13:35:55;95049.72;;;22.83;40.10
20003;BME280;10162;41.600;23.806;2023-05-20T13:38:23;95038.03;;;22.58;40.51
20003;BME280;10162;41.600;23.806;2023-05-20T13:40:58;95017.59;;;22.44;40.39
20003;BME280;10162;41.600;23.806;2023-05-20T13:43:38;95032.56;;;21.79;39.80
20003;BME280;10162;41.600;23.806;2023-05-20T13:46:07;95030.41;;;22.21;41.63
20003;BME280;10162;41.600;23.806;2023-05-20T13:48:33;95043.47;;;21.57;41.84
20003;BME280;10162;41.600;23.806;2023-05-20T13:51:29;95050.59;;;21.21;43.35
20003;BME280;10162;41.600;23.806;2023-05-20T13:53:55;95025.47;;;20.87;44.16
20003;BME280;10162;41.600;23.806;2023-05-20T13:56:20;95027.28;;;20.76;44.91
20003;BME280;10162;41.600;23.806;2023-05-20T13:58:46;95025.72;;;20.80;44.43
20003;BME280;10162;41.600;23.806;2023-05-20T14:01:12;95031.97;;;21.21;45.05
20003;BME280;10162;41.600;23.806;2023-05-20T14:03:41;95020.38;;;20.75;44.75
20003;BME280;10162;41.600;23.806;2023-05-20T14:06:07;95016.44;;;20.83;45.64
20003;BME280;10162;41.600;23.806;2023-05-20T14:08:34;95031.25;;;20.69;45.38
20003;BME280;10162;41.600;23.806;2023-05-20T14:14:04;95009.38;;;20.51;46.69
20003;BME280;10162;41.600;23.806;2023-05-20T14:16:31;95020.31;;;20.55;46.30
20003;BME280;10162;41.600;23.806;2023-05-20T14:19:06;95015.91;;;20.91;45.60
20003;BME280;10162;41.600;23.806;2023-05-20T14:21:31;95009.56;;;20.97;44.71
20003;BME280;10162;41.600;23.806;2023-05-20T14:23:59;95015.50;;;21.24;44.44
20003;BME280;10162;41.600;23.806;2023-05-20T14:26:25;95025.91;;;21.56;45.05
20003;BME280;10162;41.600;23.806;2023-05-20T14:29:14;95038.94;;;21.58;45.97
20003;BME280;10162;41.600;23.806;2023-05-20T14:31:39;95039.97;;;21.26;47.01
20003;BME280;10162;41.600;23.806;2023-05-20T14:34:17;95050.19;;;20.92;47.20
20003;BME280;10162;41.600;23.806;2023-05-20T14:36:44;95042.22;;;20.87;48.09
20003;BME280;10162;41.600;23.806;2023-05-20T14:39:11;95058.72;;;20.89;49.80
20003;BME280;10162;41.600;23.806;2023-05-20T14:41:38;95052.31;;;20.90;49.73
20003;BME280;10162;41.600;23.806;2023-05-20T14:44:04;95061.00;;;20.71;50.84
20003;BME280;10162;41.600;23.806;2023-05-20T14:46:30;95049.19;;;20.46;51.29
20003;BME280;10162;41.600;23.806;2023-05-20T14:48:55;95063.81;;;20.44;51.52
20003;BME280;10162;41.600;23.806;2023-05-20T14:51:21;95055.72;;;20.29;57.65
20003;BME280;10162;41.600;23.806;2023-05-20T14:53:47;95051.72;;;19.89;66.38
20003;BME280;10162;41.600;23.806;2023-05-20T14:56:13;95048.44;;;20.09;68.90
20003;BME280;10162;41.600;23.806;2023-05-20T14:59:04;95053.94;;;20.39;60.30
20003;BME280;10162;41.600;23.806;2023-05-20T15:01:30;95033.66;;;20.23;61.99
20003;BME280;10162;41.600;23.806;2023-05-20T15:03:56;95038.19;;;20.28;57.43